Portada
METAR-TAF:

METAR-TAF

Aeropuertos :

Tahití, Polinesia Francesa

Aeropuerto Internacional Faa'a

latitud: 17-33S, longitud: 149-37W, altitud: 2 m

Observación

El informe se hizo hace 29 minutos, a las 05:30 UTC
Viento 2 kt con dirección variable
Temperatura 25°C
Humedad 54%
Presión 1017 hPa
Visibilidad 10 km o más
Escasas nubes a una altura de 2300 ft

METAR: NTAA 170530Z VRB02KT 9999 FEW023 25/15 Q1017 NOSIG

Hora: 19:59 (05:59 UTC)

Pronóstico

El informe se hizo hace 59 minutos, a las 05:00 UTC
Pronóstico válido del 17 a las 06 UTC al 18 a las 12 UTC
Viento 5 kt con dirección variable
Visibilidad 10 km o más
Escasas nubes a una altura de 2500 ft

TAF: NTAA 170500Z 1706/1812 VRB05KT 9999 FEW025

Observaciones y pronósticos meteorológicos de más de 4000 aeropuertos (mensajes METAR y TAF).

Los puntos amarillos y rojos representan las estaciones disponibles.

Ponga el ratón en el punto deseado para ver el nombre de la estación.

Haga clic para ver las observaciones y los pronósticos meteorológicos.

Para cambiar el mapa : haga clic en los botones verdes con una cruz de color negro para hacer un zoom, en el botón verde con un guión para alejar o en las flechas verdes para mapas adyacentes.


METAR-TAF: